sensor_id;sensor_type;location;lat;lon;timestamp;P1;durP1;ratioP1;P2;durP2;ratioP2
11951;SDS011;6036;41.840;23.486;2022-08-14T00:00:12;9.07;;;5.60;;
11951;SDS011;6036;41.840;23.486;2022-08-14T00:02:39;8.13;;;4.88;;
11951;SDS011;6036;41.840;23.486;2022-08-14T00:05:09;7.38;;;4.40;;
11951;SDS011;6036;41.840;23.486;2022-08-14T00:07:36;6.32;;;4.40;;
11951;SDS011;6036;41.840;23.486;2022-08-14T00:10:03;4.93;;;4.28;;
11951;SDS011;6036;41.840;23.486;2022-08-14T00:12:30;4.88;;;3.75;;
11951;SDS011;6036;41.840;23.486;2022-08-14T00:14:57;4.72;;;3.55;;
11951;SDS011;6036;41.840;23.486;2022-08-14T00:17:23;4.53;;;3.60;;
11951;SDS011;6036;41.840;23.486;2022-08-14T00:19:49;5.78;;;3.83;;
11951;SDS011;6036;41.840;23.486;2022-08-14T00:22:14;5.57;;;4.13;;
11951;SDS011;6036;41.840;23.486;2022-08-14T00:24:43;5.88;;;4.20;;
11951;SDS011;6036;41.840;23.486;2022-08-14T00:27:09;5.68;;;3.80;;
11951;SDS011;6036;41.840;23.486;2022-08-14T00:29:34;4.70;;;3.65;;
11951;SDS011;6036;41.840;23.486;2022-08-14T00:32:00;5.28;;;3.75;;
11951;SDS011;6036;41.840;23.486;2022-08-14T00:34:25;6.05;;;3.72;;
11951;SDS011;6036;41.840;23.486;2022-08-14T00:36:51;6.30;;;4.00;;
11951;SDS011;6036;41.840;23.486;2022-08-14T00:39:16;6.90;;;3.75;;
11951;SDS011;6036;41.840;23.486;2022-08-14T00:41:42;5.22;;;4.32;;
11951;SDS011;6036;41.840;23.486;2022-08-14T00:44:07;5.35;;;3.85;;
11951;SDS011;6036;41.840;23.486;2022-08-14T00:46:33;8.35;;;5.15;;
11951;SDS011;6036;41.840;23.486;2022-08-14T00:49:00;8.32;;;5.47;;
11951;SDS011;6036;41.840;23.486;2022-08-14T00:51:25;10.20;;;7.07;;
11951;SDS011;6036;41.840;23.486;2022-08-14T00:53:57;12.85;;;8.02;;
11951;SDS011;6036;41.840;23.486;2022-08-14T00:56:23;10.77;;;7.97;;
11951;SDS011;6036;41.840;23.486;2022-08-14T00:58:50;13.35;;;8.57;;
11951;SDS011;6036;41.840;23.486;2022-08-14T01:01:16;12.82;;;9.07;;
11951;SDS011;6036;41.840;23.486;2022-08-14T01:03:43;14.02;;;9.48;;
11951;SDS011;6036;41.840;23.486;2022-08-14T01:06:10;14.95;;;10.25;;
11951;SDS011;6036;41.840;23.486;2022-08-14T01:08:38;12.23;;;7.70;;
11951;SDS011;6036;41.840;23.486;2022-08-14T01:11:04;14.35;;;9.50;;
11951;SDS011;6036;41.840;23.486;2022-08-14T01:13:32;13.43;;;9.02;;
11951;SDS011;6036;41.840;23.486;2022-08-14T01:16:02;13.45;;;9.35;;
11951;SDS011;6036;41.840;23.486;2022-08-14T01:18:30;15.25;;;9.48;;
11951;SDS011;6036;41.840;23.486;2022-08-14T01:21:15;13.85;;;9.40;;
11951;SDS011;6036;41.840;23.486;2022-08-14T01:24:09;12.40;;;8.57;;
11951;SDS011;6036;41.840;23.486;2022-08-14T01:26:39;11.48;;;8.10;;
11951;SDS011;6036;41.840;23.486;2022-08-14T01:29:05;11.05;;;7.57;;
11951;SDS011;6036;41.840;23.486;2022-08-14T01:31:32;13.07;;;8.02;;
11951;SDS011;6036;41.840;23.486;2022-08-14T01:34:07;10.88;;;7.97;;
11951;SDS011;6036;41.840;23.486;2022-08-14T01:36:33;11.90;;;8.02;;
11951;SDS011;6036;41.840;23.486;2022-08-14T01:39:12;11.98;;;7.75;;
11951;SDS011;6036;41.840;23.486;2022-08-14T01:41:44;11.82;;;7.68;;
11951;SDS011;6036;41.840;23.486;2022-08-14T01:44:16;12.45;;;7.70;;
11951;SDS011;6036;41.840;23.486;2022-08-14T01:46:43;12.95;;;8.32;;
11951;SDS011;6036;41.840;23.486;2022-08-14T01:49:11;9.73;;;7.32;;
11951;SDS011;6036;41.840;23.486;2022-08-14T01:51:39;9.70;;;7.15;;
11951;SDS011;6036;41.840;23.486;2022-08-14T01:54:09;9.00;;;6.20;;
11951;SDS011;6036;41.840;23.486;2022-08-14T01:56:37;6.88;;;5.45;;
11951;SDS011;6036;41.840;23.486;2022-08-14T02:01:30;6.78;;;5.03;;
11951;SDS011;6036;41.840;23.486;2022-08-14T02:03:55;10.13;;;5.63;;
11951;SDS011;6036;41.840;23.486;2022-08-14T02:06:21;10.20;;;5.38;;
11951;SDS011;6036;41.840;23.486;2022-08-14T02:08:46;7.22;;;5.22;;
11951;SDS011;6036;41.840;23.486;2022-08-14T02:11:12;7.72;;;5.65;;
11951;SDS011;6036;41.840;23.486;2022-08-14T02:13:41;9.05;;;6.00;;
11951;SDS011;6036;41.840;23.486;2022-08-14T02:16:11;10.93;;;6.28;;
11951;SDS011;6036;41.840;23.486;2022-08-14T02:18:40;9.38;;;5.57;;
11951;SDS011;6036;41.840;23.486;2022-08-14T02:21:06;10.32;;;6.63;;
11951;SDS011;6036;41.840;23.486;2022-08-14T02:23:31;10.63;;;5.53;;
11951;SDS011;6036;41.840;23.486;2022-08-14T02:25:57;7.60;;;5.60;;
11951;SDS011;6036;41.840;23.486;2022-08-14T02:28:25;9.30;;;5.25;;
11951;SDS011;6036;41.840;23.486;2022-08-14T02:30:54;6.32;;;5.13;;
11951;SDS011;6036;41.840;23.486;2022-08-14T02:33:20;7.55;;;5.40;;
11951;SDS011;6036;41.840;23.486;2022-08-14T02:35:47;9.38;;;6.35;;
11951;SDS011;6036;41.840;23.486;2022-08-14T02:38:13;7.80;;;5.93;;
11951;SDS011;6036;41.840;23.486;2022-08-14T02:40:38;9.27;;;6.50;;
11951;SDS011;6036;41.840;23.486;2022-08-14T02:43:04;7.68;;;5.82;;
11951;SDS011;6036;41.840;23.486;2022-08-14T02:45:30;7.10;;;5.63;;
11951;SDS011;6036;41.840;23.486;2022-08-14T02:47:59;8.23;;;5.72;;
11951;SDS011;6036;41.840;23.486;2022-08-14T02:50:27;8.10;;;5.60;;
11951;SDS011;6036;41.840;23.486;2022-08-14T02:52:53;9.32;;;6.18;;
11951;SDS011;6036;41.840;23.486;2022-08-14T02:55:19;9.77;;;6.10;;
11951;SDS011;6036;41.840;23.486;2022-08-14T02:57:44;10.15;;;5.80;;
11951;SDS011;6036;41.840;23.486;2022-08-14T03:00:12;8.05;;;5.22;;
11951;SDS011;6036;41.840;23.486;2022-08-14T03:02:37;8.55;;;5.78;;
11951;SDS011;6036;41.840;23.486;2022-08-14T03:05:03;9.48;;;5.70;;
11951;SDS011;6036;41.840;23.486;2022-08-14T03:07:29;8.98;;;6.07;;
11951;SDS011;6036;41.840;23.486;2022-08-14T03:09:54;10.55;;;5.85;;
11951;SDS011;6036;41.840;23.486;2022-08-14T03:12:20;8.25;;;6.22;;
11951;SDS011;6036;41.840;23.486;2022-08-14T03:14:46;10.95;;;7.22;;
11951;SDS011;6036;41.840;23.486;2022-08-14T03:17:16;9.35;;;7.13;;
11951;SDS011;6036;41.840;23.486;2022-08-14T03:19:42;15.15;;;8.73;;
11951;SDS011;6036;41.840;23.486;2022-08-14T03:22:08;12.68;;;8.77;;
11951;SDS011;6036;41.840;23.486;2022-08-14T03:24:33;12.80;;;8.75;;
11951;SDS011;6036;41.840;23.486;2022-08-14T03:27:01;14.02;;;8.45;;
11951;SDS011;6036;41.840;23.486;2022-08-14T03:29:27;10.50;;;7.28;;
11951;SDS011;6036;41.840;23.486;2022-08-14T03:31:53;11.48;;;7.75;;
11951;SDS011;6036;41.840;23.486;2022-08-14T03:34:19;10.90;;;7.22;;
11951;SDS011;6036;41.840;23.486;2022-08-14T03:36:48;11.87;;;8.47;;
11951;SDS011;6036;41.840;23.486;2022-08-14T03:39:19;11.75;;;7.38;;
11951;SDS011;6036;41.840;23.486;2022-08-14T03:41:46;12.18;;;7.28;;
11951;SDS011;6036;41.840;23.486;2022-08-14T03:44:12;12.63;;;7.20;;
11951;SDS011;6036;41.840;23.486;2022-08-14T03:46:39;10.57;;;6.78;;
11951;SDS011;6036;41.840;23.486;2022-08-14T03:49:07;12.52;;;7.35;;
11951;SDS011;6036;41.840;23.486;2022-08-14T03:51:33;10.18;;;6.85;;
11951;SDS011;6036;41.840;23.486;2022-08-14T03:54:02;11.43;;;6.35;;
11951;SDS011;6036;41.840;23.486;2022-08-14T03:56:32;11.80;;;6.80;;
11951;SDS011;6036;41.840;23.486;2022-08-14T03:59:01;9.65;;;7.28;;
11951;SDS011;6036;41.840;23.486;2022-08-14T04:01:32;10.48;;;6.90;;
11951;SDS011;6036;41.840;23.486;2022-08-14T04:03:57;9.45;;;7.25;;
11951;SDS011;6036;41.840;23.486;2022-08-14T04:06:26;10.73;;;6.70;;
11951;SDS011;6036;41.840;23.486;2022-08-14T04:08:52;11.85;;;6.63;;
11951;SDS011;6036;41.840;23.486;2022-08-14T04:11:17;9.60;;;6.43;;
11951;SDS011;6036;41.840;23.486;2022-08-14T04:13:44;7.85;;;6.05;;
11951;SDS011;6036;41.840;23.486;2022-08-14T04:16:11;7.97;;;5.82;;
11951;SDS011;6036;41.840;23.486;2022-08-14T04:18:39;7.57;;;5.35;;
11951;SDS011;6036;41.840;23.486;2022-08-14T04:21:07;8.88;;;6.05;;
11951;SDS011;6036;41.840;23.486;2022-08-14T04:23:33;8.73;;;5.45;;
11951;SDS011;6036;41.840;23.486;2022-08-14T04:26:00;8.00;;;5.28;;
11951;SDS011;6036;41.840;23.486;2022-08-14T04:28:26;8.65;;;6.05;;
11951;SDS011;6036;41.840;23.486;2022-08-14T04:30:52;9.43;;;7.38;;
11951;SDS011;6036;41.840;23.486;2022-08-14T04:33:18;9.55;;;7.10;;
11951;SDS011;6036;41.840;23.486;2022-08-14T04:35:44;10.45;;;7.30;;
11951;SDS011;6036;41.840;23.486;2022-08-14T04:38:09;11.50;;;8.05;;
11951;SDS011;6036;41.840;23.486;2022-08-14T04:40:54;14.68;;;7.68;;
11951;SDS011;6036;41.840;23.486;2022-08-14T04:43:39;10.80;;;7.90;;
11951;SDS011;6036;41.840;23.486;2022-08-14T04:46:12;11.80;;;7.82;;
11951;SDS011;6036;41.840;23.486;2022-08-14T04:48:39;10.27;;;6.55;;
11951;SDS011;6036;41.840;23.486;2022-08-14T04:51:10;13.05;;;8.35;;
11951;SDS011;6036;41.840;23.486;2022-08-14T04:53:38;11.73;;;8.27;;
11951;SDS011;6036;41.840;23.486;2022-08-14T04:56:12;12.02;;;8.13;;
11951;SDS011;6036;41.840;23.486;2022-08-14T04:58:41;9.95;;;7.70;;
11951;SDS011;6036;41.840;23.486;2022-08-14T05:01:08;10.88;;;8.23;;
11951;SDS011;6036;41.840;23.486;2022-08-14T05:03:36;11.77;;;9.05;;
11951;SDS011;6036;41.840;23.486;2022-08-14T05:06:03;14.15;;;10.00;;
11951;SDS011;6036;41.840;23.486;2022-08-14T05:08:30;16.10;;;10.88;;
11951;SDS011;6036;41.840;23.486;2022-08-14T05:10:57;17.17;;;10.15;;
11951;SDS011;6036;41.840;23.486;2022-08-14T05:13:26;16.35;;;10.35;;
11951;SDS011;6036;41.840;23.486;2022-08-14T05:15:53;15.60;;;10.68;;
11951;SDS011;6036;41.840;23.486;2022-08-14T05:18:20;18.65;;;10.98;;
11951;SDS011;6036;41.840;23.486;2022-08-14T05:20:48;20.88;;;12.85;;
11951;SDS011;6036;41.840;23.486;2022-08-14T05:23:21;22.50;;;13.05;;
11951;SDS011;6036;41.840;23.486;2022-08-14T05:25:48;22.77;;;12.85;;
11951;SDS011;6036;41.840;23.486;2022-08-14T05:28:23;22.13;;;12.38;;
11951;SDS011;6036;41.840;23.486;2022-08-14T05:30:51;21.08;;;12.07;;
11951;SDS011;6036;41.840;23.486;2022-08-14T05:33:18;25.20;;;12.52;;
11951;SDS011;6036;41.840;23.486;2022-08-14T05:35:47;22.27;;;12.75;;
11951;SDS011;6036;41.840;23.486;2022-08-14T05:38:14;23.85;;;11.50;;
11951;SDS011;6036;41.840;23.486;2022-08-14T05:40:43;20.00;;;11.07;;
11951;SDS011;6036;41.840;23.486;2022-08-14T05:43:11;23.45;;;11.98;;
11951;SDS011;6036;41.840;23.486;2022-08-14T05:45:37;20.70;;;11.77;;
11951;SDS011;6036;41.840;23.486;2022-08-14T05:48:04;21.13;;;11.70;;
11951;SDS011;6036;41.840;23.486;2022-08-14T05:50:30;19.92;;;11.68;;
11951;SDS011;6036;41.840;23.486;2022-08-14T05:52:57;19.40;;;12.02;;
11951;SDS011;6036;41.840;23.486;2022-08-14T05:55:23;21.98;;;12.05;;
11951;SDS011;6036;41.840;23.486;2022-08-14T05:57:53;21.02;;;11.68;;
11951;SDS011;6036;41.840;23.486;2022-08-14T06:00:22;28.08;;;14.32;;
11951;SDS011;6036;41.840;23.486;2022-08-14T06:02:50;27.67;;;14.77;;
11951;SDS011;6036;41.840;23.486;2022-08-14T06:05:16;30.60;;;15.43;;
11951;SDS011;6036;41.840;23.486;2022-08-14T06:07:41;35.42;;;13.98;;
11951;SDS011;6036;41.840;23.486;2022-08-14T06:10:07;32.13;;;12.85;;
11951;SDS011;6036;41.840;23.486;2022-08-14T06:12:34;28.52;;;14.77;;
11951;SDS011;6036;41.840;23.486;2022-08-14T06:15:01;30.10;;;14.82;;
11951;SDS011;6036;41.840;23.486;2022-08-14T06:17:27;26.45;;;14.50;;
11951;SDS011;6036;41.840;23.486;2022-08-14T06:19:52;30.00;;;14.57;;
11951;SDS011;6036;41.840;23.486;2022-08-14T06:22:18;26.60;;;14.95;;
11951;SDS011;6036;41.840;23.486;2022-08-14T06:24:43;27.42;;;13.63;;
11951;SDS011;6036;41.840;23.486;2022-08-14T06:27:09;25.33;;;14.25;;
11951;SDS011;6036;41.840;23.486;2022-08-14T06:29:35;22.83;;;13.15;;
11951;SDS011;6036;41.840;23.486;2022-08-14T06:32:01;27.30;;;14.10;;
11951;SDS011;6036;41.840;23.486;2022-08-14T06:34:27;20.95;;;12.88;;
11951;SDS011;6036;41.840;23.486;2022-08-14T06:36:53;20.95;;;11.93;;
11951;SDS011;6036;41.840;23.486;2022-08-14T06:39:20;22.63;;;12.73;;
11951;SDS011;6036;41.840;23.486;2022-08-14T06:41:47;20.33;;;12.38;;
11951;SDS011;6036;41.840;23.486;2022-08-14T06:44:12;20.42;;;12.85;;
11951;SDS011;6036;41.840;23.486;2022-08-14T06:46:38;20.58;;;12.52;;
11951;SDS011;6036;41.840;23.486;2022-08-14T06:49:03;20.65;;;11.68;;
11951;SDS011;6036;41.840;23.486;2022-08-14T06:51:29;20.65;;;12.38;;
11951;SDS011;6036;41.840;23.486;2022-08-14T06:53:54;22.23;;;13.02;;
11951;SDS011;6036;41.840;23.486;2022-08-14T06:56:21;25.40;;;14.55;;
11951;SDS011;6036;41.840;23.486;2022-08-14T06:58:47;24.70;;;14.73;;
11951;SDS011;6036;41.840;23.486;2022-08-14T07:01:12;27.88;;;17.08;;
11951;SDS011;6036;41.840;23.486;2022-08-14T07:03:56;31.30;;;16.92;;
11951;SDS011;6036;41.840;23.486;2022-08-14T07:06:40;29.02;;;15.70;;
11951;SDS011;6036;41.840;23.486;2022-08-14T07:09:06;25.10;;;15.10;;
11951;SDS011;6036;41.840;23.486;2022-08-14T07:11:34;27.48;;;16.77;;
11951;SDS011;6036;41.840;23.486;2022-08-14T07:13:59;28.08;;;16.42;;
11951;SDS011;6036;41.840;23.486;2022-08-14T07:16:24;32.50;;;16.67;;
11951;SDS011;6036;41.840;23.486;2022-08-14T07:18:50;27.40;;;15.23;;
11951;SDS011;6036;41.840;23.486;2022-08-14T07:21:15;29.70;;;16.42;;
11951;SDS011;6036;41.840;23.486;2022-08-14T07:23:41;30.88;;;16.30;;
11951;SDS011;6036;41.840;23.486;2022-08-14T07:26:06;30.08;;;17.05;;
11951;SDS011;6036;41.840;23.486;2022-08-14T07:28:33;31.05;;;17.20;;
11951;SDS011;6036;41.840;23.486;2022-08-14T07:31:01;33.72;;;17.58;;
11951;SDS011;6036;41.840;23.486;2022-08-14T07:33:30;31.65;;;17.02;;
11951;SDS011;6036;41.840;23.486;2022-08-14T07:38:25;32.65;;;16.73;;
11951;SDS011;6036;41.840;23.486;2022-08-14T07:40:53;32.92;;;16.60;;
11951;SDS011;6036;41.840;23.486;2022-08-14T07:43:19;29.52;;;18.10;;
11951;SDS011;6036;41.840;23.486;2022-08-14T07:45:45;32.58;;;17.48;;
11951;SDS011;6036;41.840;23.486;2022-08-14T07:48:11;34.95;;;18.30;;
11951;SDS011;6036;41.840;23.486;2022-08-14T07:50:37;33.75;;;16.73;;
11951;SDS011;6036;41.840;23.486;2022-08-14T07:57:54;27.90;;;14.00;;
11951;SDS011;6036;41.840;23.486;2022-08-14T08:00:21;24.35;;;13.13;;
11951;SDS011;6036;41.840;23.486;2022-08-14T08:02:49;24.00;;;13.48;;
11951;SDS011;6036;41.840;23.486;2022-08-14T08:05:16;25.05;;;15.10;;
11951;SDS011;6036;41.840;23.486;2022-08-14T08:07:43;23.50;;;13.82;;
11951;SDS011;6036;41.840;23.486;2022-08-14T08:10:11;21.88;;;13.23;;
11951;SDS011;6036;41.840;23.486;2022-08-14T08:32:39;15.23;;;10.63;;
11951;SDS011;6036;41.840;23.486;2022-08-14T08:35:09;20.27;;;13.70;;
11951;SDS011;6036;41.840;23.486;2022-08-14T08:37:42;20.23;;;13.75;;
11951;SDS011;6036;41.840;23.486;2022-08-14T08:40:08;17.83;;;12.85;;
11951;SDS011;6036;41.840;23.486;2022-08-14T08:42:33;17.05;;;12.68;;
11951;SDS011;6036;41.840;23.486;2022-08-14T08:44:59;16.10;;;12.13;;
11951;SDS011;6036;41.840;23.486;2022-08-14T08:47:24;16.30;;;13.20;;
11951;SDS011;6036;41.840;23.486;2022-08-14T08:49:50;17.33;;;13.43;;
11951;SDS011;6036;41.840;23.486;2022-08-14T08:52:17;17.80;;;12.87;;
11951;SDS011;6036;41.840;23.486;2022-08-14T08:54:51;15.63;;;12.38;;
11951;SDS011;6036;41.840;23.486;2022-08-14T08:57:18;14.57;;;11.50;;
11951;SDS011;6036;41.840;23.486;2022-08-14T08:59:43;14.07;;;11.33;;
11951;SDS011;6036;41.840;23.486;2022-08-14T09:02:09;16.43;;;13.17;;
11951;SDS011;6036;41.840;23.486;2022-08-14T09:04:35;16.00;;;12.87;;
11951;SDS011;6036;41.840;23.486;2022-08-14T09:07:03;15.30;;;12.43;;
11951;SDS011;6036;41.840;23.486;2022-08-14T09:09:29;15.05;;;12.75;;
11951;SDS011;6036;41.840;23.486;2022-08-14T09:11:58;16.15;;;12.75;;
11951;SDS011;6036;41.840;23.486;2022-08-14T09:14:26;19.25;;;13.55;;
11951;SDS011;6036;41.840;23.486;2022-08-14T09:16:54;16.90;;;13.47;;
11951;SDS011;6036;41.840;23.486;2022-08-14T09:19:21;20.65;;;14.70;;
11951;SDS011;6036;41.840;23.486;2022-08-14T09:21:47;22.00;;;15.65;;
11951;SDS011;6036;41.840;23.486;2022-08-14T09:24:13;29.83;;;20.08;;
11951;SDS011;6036;41.840;23.486;2022-08-14T09:26:40;29.27;;;19.60;;
11951;SDS011;6036;41.840;23.486;2022-08-14T09:29:07;31.60;;;20.23;;
11951;SDS011;6036;41.840;23.486;2022-08-14T09:31:34;32.28;;;21.05;;
11951;SDS011;6036;41.840;23.486;2022-08-14T09:34:21;29.40;;;20.07;;
11951;SDS011;6036;41.840;23.486;2022-08-14T09:42:12;29.60;;;19.93;;
11951;SDS011;6036;41.840;23.486;2022-08-14T09:47:18;28.73;;;17.63;;
11951;SDS011;6036;41.840;23.486;2022-08-14T09:49:46;24.17;;;16.30;;
11951;SDS011;6036;41.840;23.486;2022-08-14T09:52:14;26.67;;;18.50;;
11951;SDS011;6036;41.840;23.486;2022-08-14T09:54:41;27.08;;;19.10;;
11951;SDS011;6036;41.840;23.486;2022-08-14T09:57:08;26.20;;;18.37;;
11951;SDS011;6036;41.840;23.486;2022-08-14T09:59:39;27.25;;;19.48;;
11951;SDS011;6036;41.840;23.486;2022-08-14T10:02:18;35.03;;;22.83;;
11951;SDS011;6036;41.840;23.486;2022-08-14T10:04:45;31.08;;;21.38;;
11951;SDS011;6036;41.840;23.486;2022-08-14T10:07:28;28.20;;;20.02;;
11951;SDS011;6036;41.840;23.486;2022-08-14T10:10:25;27.83;;;18.77;;
11951;SDS011;6036;41.840;23.486;2022-08-14T10:12:54;30.02;;;20.33;;
11951;SDS011;6036;41.840;23.486;2022-08-14T10:15:20;33.10;;;22.98;;
11951;SDS011;6036;41.840;23.486;2022-08-14T10:17:49;27.58;;;19.65;;
11951;SDS011;6036;41.840;23.486;2022-08-14T10:20:32;27.50;;;19.13;;
11951;SDS011;6036;41.840;23.486;2022-08-14T10:23:15;26.00;;;18.65;;
11951;SDS011;6036;41.840;23.486;2022-08-14T10:25:44;29.23;;;18.70;;
11951;SDS011;6036;41.840;23.486;2022-08-14T10:28:14;26.67;;;19.23;;
11951;SDS011;6036;41.840;23.486;2022-08-14T10:30:43;30.65;;;20.80;;
11951;SDS011;6036;41.840;23.486;2022-08-14T10:33:22;27.92;;;18.88;;
11951;SDS011;6036;41.840;23.486;2022-08-14T10:35:49;26.77;;;18.52;;
11951;SDS011;6036;41.840;23.486;2022-08-14T10:38:24;26.50;;;18.30;;
11951;SDS011;6036;41.840;23.486;2022-08-14T10:41:15;24.55;;;17.83;;
11951;SDS011;6036;41.840;23.486;2022-08-14T10:43:42;23.63;;;16.43;;
11951;SDS011;6036;41.840;23.486;2022-08-14T10:46:16;23.27;;;16.55;;
11951;SDS011;6036;41.840;23.486;2022-08-14T10:48:56;22.93;;;16.57;;
11951;SDS011;6036;41.840;23.486;2022-08-14T10:51:25;22.35;;;16.27;;
11951;SDS011;6036;41.840;23.486;2022-08-14T10:53:54;21.87;;;17.17;;
11951;SDS011;6036;41.840;23.486;2022-08-14T10:56:29;20.50;;;15.57;;
11951;SDS011;6036;41.840;23.486;2022-08-14T10:59:01;19.58;;;15.55;;
11951;SDS011;6036;41.840;23.486;2022-08-14T11:01:32;18.83;;;14.90;;
11951;SDS011;6036;41.840;23.486;2022-08-14T11:03:59;18.48;;;15.02;;
11951;SDS011;6036;41.840;23.486;2022-08-14T11:06:26;19.83;;;15.13;;
11951;SDS011;6036;41.840;23.486;2022-08-14T11:08:53;18.95;;;14.05;;
11951;SDS011;6036;41.840;23.486;2022-08-14T11:11:19;18.23;;;14.32;;
11951;SDS011;6036;41.840;23.486;2022-08-14T11:13:45;17.63;;;14.10;;
11951;SDS011;6036;41.840;23.486;2022-08-14T11:16:12;18.43;;;13.97;;
11951;SDS011;6036;41.840;23.486;2022-08-14T11:18:40;18.95;;;14.18;;
11951;SDS011;6036;41.840;23.486;2022-08-14T11:21:09;19.50;;;14.75;;
11951;SDS011;6036;41.840;23.486;2022-08-14T11:23:40;16.90;;;14.13;;
11951;SDS011;6036;41.840;23.486;2022-08-14T11:26:08;18.63;;;15.32;;
11951;SDS011;6036;41.840;23.486;2022-08-14T11:28:39;18.58;;;14.13;;
11951;SDS011;6036;41.840;23.486;2022-08-14T11:31:07;16.57;;;14.10;;
11951;SDS011;6036;41.840;23.486;2022-08-14T11:33:34;17.73;;;14.32;;
11951;SDS011;6036;41.840;23.486;2022-08-14T11:36:02;18.30;;;14.07;;
11951;SDS011;6036;41.840;23.486;2022-08-14T11:38:36;17.13;;;13.30;;
11951;SDS011;6036;41.840;23.486;2022-08-14T11:41:06;17.57;;;13.83;;
11951;SDS011;6036;41.840;23.486;2022-08-14T11:43:43;16.10;;;13.73;;
11951;SDS011;6036;41.840;23.486;2022-08-14T11:46:10;17.42;;;13.68;;
11951;SDS011;6036;41.840;23.486;2022-08-14T11:49:10;17.08;;;13.32;;
11951;SDS011;6036;41.840;23.486;2022-08-14T11:51:29;14.98;;;12.13;;
11951;SDS011;6036;41.840;23.486;2022-08-14T11:53:55;16.90;;;12.67;;
11951;SDS011;6036;41.840;23.486;2022-08-14T11:56:32;15.82;;;11.85;;
11951;SDS011;6036;41.840;23.486;2022-08-14T11:58:59;15.25;;;11.13;;
11951;SDS011;6036;41.840;23.486;2022-08-14T12:01:26;13.32;;;11.10;;
11951;SDS011;6036;41.840;23.486;2022-08-14T12:03:53;12.38;;;9.75;;
11951;SDS011;6036;41.840;23.486;2022-08-14T12:06:21;12.23;;;9.90;;
11951;SDS011;6036;41.840;23.486;2022-08-14T12:08:46;11.50;;;9.30;;
11951;SDS011;6036;41.840;23.486;2022-08-14T12:11:17;11.90;;;9.27;;
11951;SDS011;6036;41.840;23.486;2022-08-14T12:13:43;11.53;;;9.50;;
11951;SDS011;6036;41.840;23.486;2022-08-14T12:16:09;11.05;;;8.98;;
11951;SDS011;6036;41.840;23.486;2022-08-14T12:18:41;11.52;;;9.70;;
11951;SDS011;6036;41.840;23.486;2022-08-14T12:25:09;9.53;;;8.10;;
11951;SDS011;6036;41.840;23.486;2022-08-14T12:27:46;8.80;;;7.40;;
11951;SDS011;6036;41.840;23.486;2022-08-14T12:30:24;7.75;;;6.70;;
11951;SDS011;6036;41.840;23.486;2022-08-14T12:32:50;9.48;;;7.85;;
11951;SDS011;6036;41.840;23.486;2022-08-14T12:35:17;9.00;;;7.47;;
11951;SDS011;6036;41.840;23.486;2022-08-14T12:37:49;9.57;;;8.02;;
11951;SDS011;6036;41.840;23.486;2022-08-14T12:40:16;9.20;;;8.23;;
11951;SDS011;6036;41.840;23.486;2022-08-14T12:42:42;11.40;;;9.75;;
11951;SDS011;6036;41.840;23.486;2022-08-14T12:45:09;9.35;;;7.68;;
11951;SDS011;6036;41.840;23.486;2022-08-14T12:47:39;7.90;;;6.93;;
11951;SDS011;6036;41.840;23.486;2022-08-14T12:50:05;7.40;;;6.60;;
11951;SDS011;6036;41.840;23.486;2022-08-14T12:55:08;9.50;;;7.78;;
11951;SDS011;6036;41.840;23.486;2022-08-14T12:57:39;9.27;;;8.13;;
11951;SDS011;6036;41.840;23.486;2022-08-14T13:02:42;9.13;;;7.60;;
11951;SDS011;6036;41.840;23.486;2022-08-14T13:05:08;8.10;;;6.90;;
11951;SDS011;6036;41.840;23.486;2022-08-14T13:07:36;8.27;;;7.38;;
11951;SDS011;6036;41.840;23.486;2022-08-14T13:10:04;7.72;;;6.70;;
11951;SDS011;6036;41.840;23.486;2022-08-14T13:12:31;8.00;;;6.93;;
11951;SDS011;6036;41.840;23.486;2022-08-14T13:14:57;7.47;;;6.72;;
11951;SDS011;6036;41.840;23.486;2022-08-14T13:17:24;9.25;;;7.68;;
11951;SDS011;6036;41.840;23.486;2022-08-14T13:19:51;8.43;;;7.22;;
11951;SDS011;6036;41.840;23.486;2022-08-14T13:22:22;8.98;;;6.82;;
11951;SDS011;6036;41.840;23.486;2022-08-14T13:24:54;7.60;;;6.77;;
11951;SDS011;6036;41.840;23.486;2022-08-14T13:27:23;8.90;;;7.38;;
11951;SDS011;6036;41.840;23.486;2022-08-14T13:29:52;8.05;;;6.88;;
11951;SDS011;6036;41.840;23.486;2022-08-14T13:32:23;7.22;;;6.20;;
11951;SDS011;6036;41.840;23.486;2022-08-14T13:34:49;7.67;;;6.13;;
11951;SDS011;6036;41.840;23.486;2022-08-14T13:37:15;8.10;;;6.60;;
11951;SDS011;6036;41.840;23.486;2022-08-14T13:39:48;7.45;;;6.57;;
11951;SDS011;6036;41.840;23.486;2022-08-14T13:42:16;7.88;;;6.57;;
11951;SDS011;6036;41.840;23.486;2022-08-14T13:44:45;8.00;;;6.60;;
11951;SDS011;6036;41.840;23.486;2022-08-14T13:47:17;7.97;;;7.05;;
11951;SDS011;6036;41.840;23.486;2022-08-14T13:49:47;8.05;;;6.10;;
11951;SDS011;6036;41.840;23.486;2022-08-14T13:52:15;6.95;;;6.20;;
11951;SDS011;6036;41.840;23.486;2022-08-14T13:54:46;5.85;;;5.25;;
11951;SDS011;6036;41.840;23.486;2022-08-14T13:57:15;7.38;;;5.80;;
11951;SDS011;6036;41.840;23.486;2022-08-14T13:59:46;8.60;;;6.07;;
11951;SDS011;6036;41.840;23.486;2022-08-14T14:02:13;8.48;;;6.65;;
11951;SDS011;6036;41.840;23.486;2022-08-14T14:04:47;8.35;;;7.13;;
11951;SDS011;6036;41.840;23.486;2022-08-14T14:07:14;9.50;;;7.80;;
11951;SDS011;6036;41.840;23.486;2022-08-14T14:09:42;10.38;;;7.85;;
11951;SDS011;6036;41.840;23.486;2022-08-14T14:12:09;8.77;;;7.68;;
11951;SDS011;6036;41.840;23.486;2022-08-14T14:14:36;9.38;;;7.88;;
11951;SDS011;6036;41.840;23.486;2022-08-14T14:17:03;8.80;;;7.50;;
11951;SDS011;6036;41.840;23.486;2022-08-14T14:19:30;9.23;;;7.87;;
11951;SDS011;6036;41.840;23.486;2022-08-14T14:22:03;9.25;;;7.18;;
11951;SDS011;6036;41.840;23.486;2022-08-14T14:24:32;8.75;;;7.22;;
11951;SDS011;6036;41.840;23.486;2022-08-14T14:26:59;9.23;;;7.30;;
11951;SDS011;6036;41.840;23.486;2022-08-14T14:29:30;7.47;;;6.18;;
11951;SDS011;6036;41.840;23.486;2022-08-14T14:31:57;7.43;;;6.20;;
11951;SDS011;6036;41.840;23.486;2022-08-14T14:34:24;7.78;;;6.10;;
11951;SDS011;6036;41.840;23.486;2022-08-14T14:36:52;6.55;;;5.72;;
11951;SDS011;6036;41.840;23.486;2022-08-14T14:39:24;7.53;;;5.67;;
11951;SDS011;6036;41.840;23.486;2022-08-14T14:41:51;6.47;;;5.30;;
11951;SDS011;6036;41.840;23.486;2022-08-14T14:44:24;6.13;;;5.18;;
11951;SDS011;6036;41.840;23.486;2022-08-14T14:46:56;7.03;;;5.13;;
11951;SDS011;6036;41.840;23.486;2022-08-14T14:49:26;6.45;;;5.70;;
11951;SDS011;6036;41.840;23.486;2022-08-14T14:51:53;6.83;;;5.10;;
11951;SDS011;6036;41.840;23.486;2022-08-14T14:54:22;5.20;;;4.70;;
11951;SDS011;6036;41.840;23.486;2022-08-14T14:56:48;5.07;;;4.57;;
11951;SDS011;6036;41.840;23.486;2022-08-14T14:59:16;6.77;;;5.10;;
11951;SDS011;6036;41.840;23.486;2022-08-14T15:01:42;6.30;;;5.00;;
11951;SDS011;6036;41.840;23.486;2022-08-14T15:04:13;5.32;;;4.50;;
11951;SDS011;6036;41.840;23.486;2022-08-14T15:06:38;4.50;;;4.03;;
11951;SDS011;6036;41.840;23.486;2022-08-14T15:09:04;5.03;;;3.50;;
11951;SDS011;6036;41.840;23.486;2022-08-14T15:11:30;6.13;;;4.05;;
11951;SDS011;6036;41.840;23.486;2022-08-14T15:13:56;3.65;;;3.30;;
11951;SDS011;6036;41.840;23.486;2022-08-14T15:16:22;3.25;;;2.90;;
11951;SDS011;6036;41.840;23.486;2022-08-14T15:18:47;3.27;;;2.97;;
11951;SDS011;6036;41.840;23.486;2022-08-14T15:21:13;3.70;;;3.27;;
11951;SDS011;6036;41.840;23.486;2022-08-14T15:23:39;3.60;;;3.10;;
11951;SDS011;6036;41.840;23.486;2022-08-14T15:26:05;3.80;;;3.40;;